Time;durP1;ratioP1;P1;durP2;ratioP2;P2;SDS_P1;SDS_P2;PMS_P1;PMS_P2;Temp;Humidity;BMP_temperature;BMP_pressure;BME280_temperature;BME280_humidity;BME280_pressure;Samples;Min_cycle;Max_cycle;Signal;HPM_P1;HPM_P2
2021/12/14 00:01:00;;;;;;;9.70;7.18;;;;;;;4.12;80.16;100026.09;5106034;28;20074;-66
2021/12/14 00:03:34;;;;;;;9.07;7.13;;;;;;;4.82;80.28;100142.91;5106014;28;20042;-66
2021/12/14 00:06:07;;;;;;;9.30;6.93;;;;;;;4.81;80.11;100139.41;5105825;28;20105;-66
2021/12/14 00:08:49;;;;;;;9.20;7.57;;;;;;;4.87;79.97;100145.44;5105862;28;20055;-66
2021/12/14 00:11:33;;;;;;;9.20;7.43;;;;;;;4.86;79.85;100147.22;5105877;28;20040;-66
2021/12/14 00:15:01;;;;;;;10.98;8.20;;;;;;;4.86;80.19;100143.72;5105388;28;20117;-67
2021/12/14 00:17:05;;;;;;;8.65;6.78;;;;;;;4.87;80.04;100153.31;5105299;28;20048;-67
2021/12/14 00:19:38;;;;;;;9.45;7.88;;;;;;;4.88;79.99;100150.66;5105512;28;20247;-67
2021/12/14 00:22:21;;;;;;;9.85;7.95;;;;;;;4.90;79.96;100153.31;5105750;28;20089;-66
2021/12/14 00:24:56;;;;;;;9.07;7.13;;;;;;;4.89;80.12;100152.44;5105637;28;20048;-66
2021/12/14 00:27:29;;;;;;;8.73;7.78;;;;;;;3.10;80.25;99852.28;5105641;28;20101;-66
2021/12/14 00:30:07;;;;;;;10.77;7.03;;;;;;;4.89;79.98;100148.91;5105652;28;20043;-66
2021/12/14 00:32:39;;;;;;;11.05;8.13;;;;;;;4.90;80.09;100155.94;5105554;28;20102;-66
2021/12/14 00:35:13;;;;;;;8.10;6.97;;;;;;;4.86;80.34;100148.97;5105598;28;20227;-66
2021/12/14 00:37:48;;;;;;;9.68;7.20;;;;;;;4.87;80.15;100143.69;5105593;28;20093;-66
2021/12/14 00:40:22;;;;;;;;;;;;;;;4.84;80.50;100145.50;5106093;28;20127;-67
2021/12/14 00:42:56;;;;;;;8.85;6.95;;;;;;;4.81;80.53;100144.66;5105568;28;19977;-67
2021/12/14 00:45:32;;;;;;;10.32;8.77;;;;;;;4.84;80.57;100142.88;5109082;28;20304;-66
2021/12/14 00:48:06;;;;;;;9.35;7.65;;;;;;;4.88;80.41;100134.91;5108630;28;20055;-66
2021/12/14 00:50:42;;;;;;;7.82;7.03;;;;;;;4.90;80.32;100148.06;5109348;28;20086;-66
2021/12/14 00:53:14;;;;;;;7.63;6.25;;;;;;;4.92;80.30;100143.63;5109312;28;20040;-66
2021/12/14 00:55:49;;;;;;;7.43;6.53;;;;;;;4.90;80.36;100148.06;5110007;28;20097;-66
2021/12/14 00:58:22;;;;;;;8.93;6.75;;;;;;;4.88;80.44;100142.78;5109159;28;20048;-67
2021/12/14 01:01:00;;;;;;;9.02;6.97;;;;;;;4.91;80.48;100141.91;5109106;28;20047;-66
2021/12/14 01:03:33;;;;;;;8.57;7.15;;;;;;;4.92;80.69;100144.50;5108829;28;20039;-65
2021/12/14 01:06:11;;;;;;;8.45;6.90;;;;;;;4.89;80.59;100149.81;5108988;28;20043;-66
2021/12/14 01:08:45;;;;;;;8.50;7.50;;;;;;;4.93;80.59;100150.63;5108993;28;20056;-66
2021/12/14 01:11:22;;;;;;;8.18;6.32;;;;;;;4.91;80.90;100150.66;5108964;28;20059;-66
2021/12/14 01:14:02;;;;;;;7.72;6.20;;;;;;;4.91;80.78;100147.16;5108557;28;20096;-66
2021/12/14 01:16:51;;;;;;;9.13;6.78;;;;;;;4.91;80.82;100147.16;5108816;28;20044;-66
2021/12/14 01:19:26;;;;;;;7.97;6.90;;;;;;;4.91;80.71;100147.16;5108827;28;20039;-68
2021/12/14 01:22:32;;;;;;;8.43;6.97;;;;;;;4.91;80.80;100144.53;5108744;28;20052;-66
2021/12/14 01:25:12;;;;;;;7.27;6.07;;;;;;;4.90;80.77;100146.28;5108664;28;20044;-66
2021/12/14 01:27:51;;;;;;;8.52;7.05;;;;;;;4.90;80.81;100146.28;5107878;28;20434;-66
2021/12/14 01:30:32;;;;;;;6.95;6.25;;;;;;;4.92;80.89;100139.25;5108639;28;20047;-66
2021/12/14 01:33:12;;;;;;;8.40;7.13;;;;;;;4.93;80.88;100148.00;5108314;28;20090;-66
2021/12/14 01:35:48;;;;;;;8.65;7.20;;;;;;;4.93;80.85;100151.47;5108511;28;20052;-66
2021/12/14 01:38:34;;;;;;;7.72;6.45;;;;;;;4.95;80.97;100154.94;5108448;28;20227;-66
2021/12/14 01:41:11;;;;;;;9.50;6.75;;;;;;;4.96;80.80;100156.69;5108357;28;20044;-67
2021/12/14 01:43:48;;;;;;;7.75;6.38;;;;;;;4.96;81.00;100150.56;5108408;28;20036;-67
2021/12/14 01:46:25;;;;;;;7.97;6.78;;;;;;;4.21;80.71;100019.84;5108233;28;20048;-67
2021/12/14 01:49:02;;;;;;;8.25;7.35;;;;;;;5.00;80.79;100152.22;5108028;28;20043;-67
2021/12/14 01:51:38;;;;;;;8.13;6.63;;;;;;;5.00;80.73;100158.34;5108193;28;20093;-66
2021/12/14 01:54:14;;;;;;;8.13;6.82;;;;;;;5.01;80.73;100159.22;5108675;28;20215;-67
2021/12/14 01:56:47;;;;;;;8.85;6.55;;;;;;;5.06;80.43;100163.47;5108065;28;20043;-67
2021/12/14 01:59:25;;;;;;;8.30;7.28;;;;;;;5.06;80.59;100155.59;5108012;28;20113;-67
2021/12/14 02:02:08;;;;;;;8.10;7.05;;;;;;;5.06;80.57;100158.22;5107751;28;20133;-67
2021/12/14 02:04:43;;;;;;;7.95;6.60;;;;;;;5.08;80.49;100158.19;5107879;28;20070;-66
2021/12/14 02:07:19;;;;;;;8.38;6.75;;;;;;;5.07;80.51;100156.47;5107892;28;20055;-67
2021/12/14 02:09:57;;;;;;;8.10;6.38;;;;;;;5.09;80.32;100160.78;5108649;28;20109;-67
2021/12/14 02:12:32;;;;;;;8.98;7.22;;;;;;;5.08;80.45;100160.81;5107494;28;20040;-67
2021/12/14 02:15:08;;;;;;;;;;;;;;;5.08;80.68;100156.44;5107805;28;20304;-67
2021/12/14 02:17:42;;;;;;;8.68;7.55;;;;;;;5.14;80.30;100160.69;5107664;28;19916;-67
2021/12/14 02:20:20;;;;;;;9.10;7.70;;;;;;;5.16;80.31;100153.66;5107603;28;20044;-67
2021/12/14 02:22:53;;;;;;;8.35;6.68;;;;;;;5.21;79.97;100164.94;5108462;28;20106;-67
2021/12/14 02:25:26;;;;;;;10.50;7.13;;;;;;;5.23;79.96;100155.25;5107378;28;20104;-67
2021/12/14 02:28:03;;;;;;;8.82;7.15;;;;;;;5.20;79.98;100155.31;5107508;28;20137;-67
2021/12/14 02:30:40;;;;;;;7.55;6.55;;;;;;;5.22;79.93;100157.91;5107484;28;20093;-67
2021/12/14 02:33:18;;;;;;;7.93;6.85;;;;;;;5.25;79.97;100161.34;5107358;28;20093;-67
2021/12/14 02:35:51;;;;;;;8.13;7.03;;;;;;;5.28;79.65;100155.16;5107295;28;20048;-67
2021/12/14 02:38:26;;;;;;;8.80;6.70;;;;;;;5.25;79.79;100163.97;5107038;28;20292;-67
2021/12/14 02:40:58;;;;;;;7.80;6.72;;;;;;;5.23;79.89;100157.88;5107021;28;20047;-67
2021/12/14 02:43:36;;;;;;;7.82;6.97;;;;;;;5.23;79.79;100147.38;5106921;28;20231;-67
2021/12/14 02:46:11;;;;;;;7.90;6.40;;;;;;;5.24;79.73;100142.97;5106945;28;20052;-68
2021/12/14 02:48:48;;;;;;;9.25;7.22;;;;;;;4.99;79.85;100101.44;5107065;28;20086;-67
2021/12/14 02:51:23;;;;;;;8.27;6.75;;;;;;;5.23;80.04;100136.00;5106999;28;20048;-67
2021/12/14 02:54:00;;;;;;;7.63;6.50;;;;;;;5.22;79.98;100144.78;5107010;28;20086;-67
2021/12/14 02:56:35;;;;;;;8.43;6.70;;;;;;;4.97;80.04;100102.38;5106954;28;20296;-67
2021/12/14 02:59:10;;;;;;;8.43;6.65;;;;;;;5.18;80.15;100141.34;5106864;28;20048;-67
2021/12/14 03:01:44;;;;;;;8.23;6.40;;;;;;;5.22;80.03;100144.78;5106877;28;20040;-67
2021/12/14 03:04:17;;;;;;;7.80;6.63;;;;;;;5.20;80.11;100146.56;5106829;28;20081;-67
2021/12/14 03:06:53;;;;;;;7.80;6.32;;;;;;;5.22;79.97;100153.53;5106179;28;20089;-67
2021/12/14 03:09:38;;;;;;;7.90;6.57;;;;;;;5.23;80.00;100143.88;5106747;28;20295;-67
2021/12/14 03:12:15;;;;;;;7.13;6.05;;;;;;;5.22;80.15;100152.66;5106696;28;20048;-67
2021/12/14 03:14:50;;;;;;;7.97;6.00;;;;;;;5.25;79.89;100152.59;5106680;28;20056;-67
2021/12/14 03:17:23;;;;;;;8.38;7.10;;;;;;;3.05;79.81;99778.16;5106516;28;20086;-67
2021/12/14 03:19:57;;;;;;;8.57;6.68;;;;;;;5.28;79.88;100149.91;5106536;28;20097;-67
2021/12/14 03:22:35;;;;;;;10.93;7.10;;;;;;;5.27;80.04;100154.28;5107293;28;20113;-67
2021/12/14 03:25:13;;;;;;;9.02;7.13;;;;;;;5.24;80.25;100151.72;5106183;28;20218;-67
2021/12/14 03:27:46;;;;;;;7.80;6.60;;;;;;;5.25;80.13;100145.56;5106411;28;20051;-67
2021/12/14 03:30:30;;;;;;;7.15;6.35;;;;;;;5.28;80.04;100144.66;5106363;28;20046;-67
2021/12/14 03:33:06;;;;;;;8.90;6.45;;;;;;;5.26;80.06;100142.03;5106375;28;20048;-67
2021/12/14 03:35:41;;;;;;;8.07;6.70;;;;;;;5.23;80.36;100143.88;5106265;28;20047;-67
2021/12/14 03:38:16;;;;;;;7.57;6.40;;;;;;;5.22;80.43;100147.41;5106282;28;20218;-67
2021/12/14 03:40:57;;;;;;;8.85;6.80;;;;;;;5.21;80.23;100138.66;5106178;28;20048;-67
2021/12/14 03:43:29;;;;;;;7.47;6.50;;;;;;;5.19;80.49;100137.81;5106686;28;20063;-67
2021/12/14 03:45:59;;;;;;;7.70;5.72;;;;;;;5.19;80.46;100182.50;5106534;28;20199;-67
2021/12/14 03:48:30;;;;;;;7.10;5.72;;;;;;;5.20;80.60;100130.81;5106078;28;20285;-67
2021/12/14 03:50:59;;;;;;;6.82;5.90;;;;;;;5.20;80.82;100128.16;5106078;28;20300;-67
2021/12/14 03:53:29;;;;;;;8.50;6.18;;;;;;;5.20;80.99;100128.16;5106001;28;20371;-67
2021/12/14 03:56:04;;;;;;;7.80;5.65;;;;;;;5.17;81.52;100133.50;5106003;28;20110;-67
2021/12/14 03:58:40;;;;;;;6.65;5.60;;;;;;;5.15;81.54;100130.03;5105921;28;20098;-67
2021/12/14 04:01:17;;;;;;;8.88;6.57;;;;;;;5.12;81.87;100126.56;5105946;28;20040;-67
2021/12/14 04:03:53;;;;;;;8.88;6.43;;;;;;;4.33;81.85;99993.34;5105882;28;20044;-67
2021/12/14 04:06:27;;;;;;;7.28;5.78;;;;;;;5.12;81.75;100128.34;5105868;28;20280;-67
2021/12/14 04:08:59;;;;;;;9.05;6.60;;;;;;;5.11;81.64;100119.59;5105819;28;20048;-67
2021/12/14 04:11:33;;;;;;;8.85;6.63;;;;;;;4.92;81.72;100094.59;5105860;28;20040;-67
2021/12/14 04:14:07;;;;;;;9.93;8.13;;;;;;;5.13;81.81;100132.69;5105553;28;20082;-67
2021/12/14 04:16:43;;;;;;;6.70;5.50;;;;;;;5.15;81.84;100132.66;5105841;28;20093;-67
2021/12/14 04:19:22;;;;;;;8.77;7.05;;;;;;;5.15;81.83;100130.91;5107644;28;20093;-67
2021/12/14 04:21:57;;;;;;;7.30;5.95;;;;;;;5.17;81.52;100133.50;5109920;28;20281;-67
2021/12/14 04:24:30;;;;;;;;;;;;;;;5.15;82.08;100133.53;5110252;28;20048;-67
2021/12/14 04:27:09;;;;;;;7.15;5.70;;;;;;;5.15;81.79;100130.03;5109551;28;19961;-67
2021/12/14 04:29:41;;;;;;;11.63;6.15;;;;;;;5.19;81.59;100126.44;5109745;28;20055;-67
2021/12/14 04:32:15;;;;;;;7.03;5.90;;;;;;;5.20;81.36;100120.28;5109759;28;20055;-67
2021/12/14 04:34:49;;;;;;;6.50;5.10;;;;;;;5.22;81.33;100156.16;5108956;28;20234;-67
2021/12/14 04:37:22;;;;;;;6.78;4.93;;;;;;;5.24;81.32;100132.47;5109629;28;20093;-67
2021/12/14 04:40:00;;;;;;;6.30;5.45;;;;;;;5.29;81.06;100130.59;5109311;28;20051;-67
2021/12/14 04:54:00;;;;;;;6.82;5.40;;;;;;;5.27;80.95;100125.38;5109271;28;20091;-67
2021/12/14 04:56:37;;;;;;;7.28;5.05;;;;;;;5.26;81.23;100131.53;5109005;28;20086;-68
2021/12/14 04:59:15;;;;;;;7.15;4.80;;;;;;;5.27;81.31;100128.00;5109267;28;20062;-68
2021/12/14 05:01:48;;;;;;;6.13;4.55;;;;;;;5.28;81.24;100129.75;5108888;28;20246;-68
2021/12/14 05:04:23;;;;;;;6.40;5.70;;;;;;;5.30;81.10;100141.09;5109131;28;20070;-68
2021/12/14 05:07:03;;;;;;;;;;;;;;;5.25;81.49;100131.56;5109235;28;20093;-68
2021/12/14 05:09:37;;;;;;;6.55;4.72;;;;;;;5.26;81.44;100139.41;5108727;28;19961;-66
2021/12/14 05:12:12;;;;;;;6.60;5.40;;;;;;;5.30;81.21;100135.84;5108987;28;20040;-66
2021/12/14 05:14:47;;;;;;;7.03;5.28;;;;;;;5.30;81.19;100135.84;5107415;28;20055;-66
2021/12/14 05:17:22;;;;;;;7.13;5.88;;;;;;;5.31;81.26;100131.44;5107175;28;20349;-66
2021/12/14 05:19:55;;;;;;;7.15;5.03;;;;;;;5.29;81.32;100139.34;5107675;28;20349;-66
2021/12/14 05:22:31;;;;;;;6.88;5.53;;;;;;;5.28;81.52;100139.38;5107570;28;20056;-66
2021/12/14 05:25:08;;;;;;;8.10;5.53;;;;;;;4.11;81.18;99930.78;5107596;28;20043;-66
2021/12/14 05:27:44;;;;;;;8.32;5.60;;;;;;;5.36;81.11;100135.69;5107475;28;20097;-68
2021/12/14 05:30:22;;;;;;;7.28;5.57;;;;;;;5.33;81.22;100135.75;5107061;28;20048;-67
2021/12/14 05:32:59;;;;;;;7.25;5.72;;;;;;;5.33;81.33;100146.28;5107415;28;20036;-67
2021/12/14 05:35:32;;;;;;;6.82;5.15;;;;;;;5.35;81.16;100141.84;5106934;28;20203;-68
2021/12/14 05:38:09;;;;;;;7.53;6.13;;;;;;;5.35;81.20;100133.09;5107370;28;20044;-67
2021/12/14 05:40:56;;;;;;;6.63;5.35;;;;;;;4.17;81.09;99922.78;5107002;28;20093;-68
2021/12/14 05:43:30;;;;;;;6.68;4.88;;;;;;;5.37;81.21;100136.56;5106891;28;20097;-68
2021/12/14 05:46:06;;;;;;;6.07;4.70;;;;;;;5.39;81.14;100135.63;5107496;28;20051;-67
2021/12/14 05:48:37;;;;;;;6.05;5.20;;;;;;;5.41;80.96;100130.34;5106919;28;20056;-68
2021/12/14 05:51:08;;;;;;;6.03;4.93;;;;;;;5.44;80.98;100128.50;5106756;28;20048;-68
2021/12/14 05:53:43;;;;;;;5.63;4.78;;;;;;;5.44;81.09;100136.41;5107006;28;20204;-68
2021/12/14 05:56:17;;;;;;;;;;;;;;;5.35;81.95;100133.97;5107533;28;20059;-67
2021/12/14 05:58:52;;;;;;;7.70;6.07;;;;;;;5.37;81.36;100132.16;5106991;28;20180;-67
2021/12/14 06:01:30;;;;;;;6.47;4.88;;;;;;;5.38;81.41;100128.63;5106579;28;20040;-68
2021/12/14 06:04:05;;;;;;;6.32;5.10;;;;;;;5.41;81.46;100128.56;5106641;28;20047;-68
2021/12/14 06:06:41;;;;;;;6.47;4.95;;;;;;;5.42;81.50;100130.31;5106805;28;20059;-68
2021/12/14 06:09:16;;;;;;;8.00;5.90;;;;;;;5.42;81.44;100138.19;5106380;28;20040;-68
2021/12/14 06:11:50;;;;;;;7.32;5.00;;;;;;;5.43;81.37;100129.41;5106483;28;20323;-67
2021/12/14 06:14:24;;;;;;;7.25;5.40;;;;;;;5.44;81.47;100133.75;5062114;28;1278659;-67
2021/12/14 06:17:02;;;;;;;6.72;5.82;;;;;;;5.44;81.46;100136.41;5107756;28;20055;-68
2021/12/14 06:19:37;;;;;;;7.72;4.90;;;;;;;5.44;81.35;100125.88;5107457;28;20058;-68
2021/12/14 06:22:12;;;;;;;7.53;5.55;;;;;;;5.43;81.50;100129.41;5107495;28;20058;-68
2021/12/14 06:24:47;;;;;;;8.88;6.03;;;;;;;5.43;81.51;100134.66;5107521;28;20059;-68
2021/12/14 06:27:22;;;;;;;9.57;5.97;;;;;;;5.23;81.44;100088.69;5107278;28;20059;-68
2021/12/14 06:29:58;;;;;;;11.55;5.70;;;;;;;5.44;81.34;100188.13;5107427;28;20040;-68
2021/12/14 06:32:33;;;;;;;9.07;5.35;;;;;;;5.43;81.60;100131.16;5107110;28;20040;-68
2021/12/14 06:35:11;;;;;;;7.05;5.30;;;;;;;5.45;81.49;100134.63;5107275;28;20058;-68
2021/12/14 06:38:21;;;;;;;7.25;5.70;;;;;;;5.47;81.35;100129.34;5107252;28;20044;-68
2021/12/14 06:41:02;;;;;;;8.43;5.45;;;;;;;5.43;81.67;100137.28;5106422;28;20212;-67
2021/12/14 06:43:37;;;;;;;8.13;5.50;;;;;;;5.41;81.89;100139.09;5107188;28;20051;-66
2021/12/14 06:46:07;;;;;;;8.02;6.07;;;;;;;5.42;81.42;100129.44;5106596;28;20043;-67
2021/12/14 06:48:44;;;;;;;7.47;5.35;;;;;;;5.44;81.39;100127.66;5106773;28;20314;-67
2021/12/14 06:51:20;;;;;;;14.13;9.60;;;;;;;5.44;81.67;100125.00;5106454;28;20047;-67
2021/12/14 06:53:55;;;;;;;22.27;14.98;;;;;;;5.56;81.46;100119.47;5106625;28;20040;-67
2021/12/14 06:56:31;;;;;;;11.02;9.25;;;;;;;5.57;81.02;100122.97;5106938;28;20047;-67
2021/12/14 06:59:08;;;;;;;9.07;6.85;;;;;;;5.55;80.84;100125.66;5106864;28;20055;-67
2021/12/14 07:01:43;;;;;;;8.48;6.15;;;;;;;5.53;80.94;100131.84;5106647;28;20048;-68
2021/12/14 07:04:21;;;;;;;7.57;5.82;;;;;;;5.50;80.88;100122.25;5106205;28;20051;-68
2021/12/14 07:06:56;;;;;;;7.75;6.40;;;;;;;5.51;80.98;100128.38;5106176;28;20040;-67
2021/12/14 07:09:30;;;;;;;8.15;6.10;;;;;;;5.51;80.71;100125.75;5106536;28;20079;-68
2021/12/14 07:12:10;;;;;;;7.80;6.35;;;;;;;5.53;80.68;100132.69;5106176;28;20047;-68
2021/12/14 07:14:46;;;;;;;8.38;6.20;;;;;;;5.52;80.76;100128.34;5105945;28;20342;-68
2021/12/14 07:17:22;;;;;;;8.13;6.45;;;;;;;5.53;80.69;100131.84;5106457;28;20063;-68
2021/12/14 07:20:01;;;;;;;10.32;5.70;;;;;;;5.56;80.56;100130.00;5106415;28;20206;-67
2021/12/14 07:22:40;;;;;;;7.65;6.00;;;;;;;5.56;80.47;100139.66;5106142;28;20040;-67
2021/12/14 07:25:16;;;;;;;8.98;6.38;;;;;;;5.59;80.59;100142.22;5105362;28;20299;-68
2021/12/14 07:27:49;;;;;;;8.43;5.65;;;;;;;5.59;80.36;100155.38;5106877;28;20044;-67
2021/12/14 07:30:26;;;;;;;8.30;6.22;;;;;;;5.33;80.49;100103.34;5106128;28;20296;-68
2021/12/14 07:33:02;;;;;;;8.60;5.95;;;;;;;5.60;80.36;100139.56;5106246;28;20048;-68
2021/12/14 07:35:39;;;;;;;8.05;5.78;;;;;;;5.30;80.30;100090.28;5106464;28;20036;-68
2021/12/14 07:38:29;;;;;;;8.50;5.82;;;;;;;5.61;80.22;100136.03;5105824;28;20043;-67
2021/12/14 07:41:09;;;;;;;8.32;6.68;;;;;;;5.38;80.14;100101.50;5106088;28;20048;-68
2021/12/14 07:43:46;;;;;;;6.13;5.05;;;;;;;5.62;80.20;100142.16;5106110;28;20212;-68
2021/12/14 07:46:25;;;;;;;6.90;5.20;;;;;;;5.66;80.10;100139.41;5105903;28;20040;-68
2021/12/14 07:49:01;;;;;;;8.57;5.80;;;;;;;5.64;80.04;100137.72;5105876;28;20047;-68
2021/12/14 07:51:38;;;;;;;8.98;6.07;;;;;;;5.65;80.14;100142.06;5105761;28;20047;-68
2021/12/14 07:54:13;;;;;;;10.35;5.82;;;;;;;5.66;80.15;100144.66;5105733;28;20060;-68
2021/12/14 07:56:46;;;;;;;;;;;;;;;5.61;80.33;100149.16;5106343;28;20059;-67
2021/12/14 07:59:23;;;;;;;7.88;6.10;;;;;;;5.64;80.09;100145.59;5105580;28;19923;-68
2021/12/14 08:02:11;;;;;;;7.88;5.25;;;;;;;5.66;80.10;100149.06;5105873;28;20327;-68
2021/12/14 08:04:50;;;;;;;9.98;5.43;;;;;;;5.69;79.95;100139.34;5105916;28;20048;-68
2021/12/14 08:07:28;;;;;;;12.90;6.93;;;;;;;5.71;79.72;100141.94;5105797;28;20048;-67
2021/12/14 08:10:07;;;;;;;7.05;5.40;;;;;;;5.69;79.90;100143.75;5105791;28;20298;-67
2021/12/14 08:12:43;;;;;;;6.85;5.07;;;;;;;5.70;79.82;100134.94;5105798;28;20047;-68
2021/12/14 08:15:22;;;;;;;8.02;5.43;;;;;;;5.73;79.83;100137.50;5065001;28;20049;-68
2021/12/14 08:18:06;;;;;;;10.48;5.40;;;;;;;5.75;79.72;100138.34;5065381;28;20282;-67
2021/12/14 08:20:44;;;;;;;6.85;5.28;;;;;;;5.75;79.79;100139.19;5065355;28;20049;-68
2021/12/14 08:23:22;;;;;;;7.70;6.03;;;;;;;5.80;79.63;100138.22;5065346;28;20049;-68
2021/12/14 08:25:59;;;;;;;8.10;6.00;;;;;;;5.81;79.52;100139.97;5064956;28;20048;-67
2021/12/14 08:28:29;;;;;;;8.18;6.32;;;;;;;5.83;79.50;100139.03;5065230;28;20103;-68
2021/12/14 08:31:03;;;;;;;7.03;5.18;;;;;;;5.86;79.09;100130.19;5065254;28;20075;-68
2021/12/14 08:33:34;;;;;;;7.90;5.53;;;;;;;5.62;79.22;100090.41;5065269;28;20049;-68
2021/12/14 08:36:07;;;;;;;7.05;5.43;;;;;;;5.86;79.29;100130.19;5064854;28;20059;-68
2021/12/14 08:38:36;;;;;;;7.90;6.43;;;;;;;5.82;79.26;100126.78;5064443;28;20041;-68
2021/12/14 08:41:14;;;;;;;9.25;6.22;;;;;;;5.83;79.29;100133.75;5065111;28;20198;-68
2021/12/14 08:43:50;;;;;;;8.13;6.10;;;;;;;5.85;79.33;100136.34;5065147;28;20289;-68
2021/12/14 08:46:26;;;;;;;8.63;6.15;;;;;;;5.83;79.34;100136.38;5065039;28;20041;-68
2021/12/14 08:49:01;;;;;;;7.63;5.20;;;;;;;5.83;79.27;100133.75;5064671;28;20186;-68
2021/12/14 08:51:36;;;;;;;7.35;5.93;;;;;;;5.64;79.22;100103.53;5064991;28;20049;-68
2021/12/14 08:54:13;;;;;;;6.72;5.20;;;;;;;5.89;79.17;100138.88;5065006;28;20041;-68
2021/12/14 08:56:52;;;;;;;7.40;5.22;;;;;;;5.90;79.17;100148.50;5065091;28;20059;-68
2021/12/14 08:59:24;;;;;;;9.05;5.35;;;;;;;4.74;78.82;99937.38;5064995;28;20045;-68
2021/12/14 09:02:03;;;;;;;6.90;5.57;;;;;;;5.97;78.79;100150.09;5064705;28;20051;-68
2021/12/14 09:04:42;;;;;;;7.20;4.95;;;;;;;5.96;78.79;100143.09;5065525;28;20059;-68
2021/12/14 09:07:17;;;;;;;7.03;5.43;;;;;;;4.08;78.33;99817.19;5068657;28;20052;-68
2021/12/14 09:09:52;;;;;;;7.32;6.13;;;;;;;6.04;78.78;100143.78;5068255;28;20044;-68
2021/12/14 09:12:31;;;;;;;7.78;6.53;;;;;;;6.04;78.67;100141.16;5068426;28;20049;-68
2021/12/14 09:15:12;;;;;;;9.07;5.82;;;;;;;6.06;78.56;100136.72;5106904;28;20060;-68
2021/12/14 09:17:45;;;;;;;7.63;5.82;;;;;;;6.07;78.72;100132.31;5108844;28;20066;-67
2021/12/14 09:20:24;;;;;;;9.60;6.18;;;;;;;6.07;78.80;100127.03;5108679;28;20040;-67
2021/12/14 09:23:00;;;;;;;9.55;5.60;;;;;;;6.07;78.68;100122.66;5107647;28;20040;-68
2021/12/14 09:25:34;;;;;;;10.20;6.55;;;;;;;6.09;78.64;100123.47;5108630;28;20048;-68
2021/12/14 09:28:08;;;;;;;9.50;5.78;;;;;;;6.10;78.53;100130.47;5108445;28;20066;-67
2021/12/14 09:30:44;;;;;;;8.73;6.40;;;;;;;6.14;78.22;100114.59;5108255;28;20296;-68
2021/12/14 09:33:17;;;;;;;6.50;4.50;;;;;;;6.17;78.39;100119.78;5108516;28;20066;-67
2021/12/14 09:35:50;;;;;;;10.13;6.18;;;;;;;6.18;78.36;100118.88;5108378;28;20059;-67
2021/12/14 09:38:31;;;;;;;8.02;5.40;;;;;;;6.18;78.21;100109.22;5108286;28;20044;-68
2021/12/14 09:41:07;;;;;;;9.10;5.50;;;;;;;6.19;78.39;100117.97;5108224;28;20075;-68
2021/12/14 09:43:40;;;;;;;11.02;8.23;;;;;;;5.92;78.30;100067.78;5108162;28;20311;-67
2021/12/14 09:46:10;;;;;;;9.32;6.15;;;;;;;6.20;78.30;100115.31;5107575;28;20055;-68
2021/12/14 09:48:41;;;;;;;7.13;5.60;;;;;;;6.23;78.42;100104.69;5107825;28;20312;-68
2021/12/14 09:51:18;;;;;;;9.32;7.63;;;;;;;6.26;78.42;100102.00;5107815;28;20204;-68
2021/12/14 09:53:55;;;;;;;7.63;5.57;;;;;;;6.26;78.28;100094.09;5108054;28;20311;-67
2021/12/14 09:56:34;;;;;;;7.18;5.32;;;;;;;6.30;78.18;100100.16;5107285;28;20220;-68
2021/12/14 09:59:10;;;;;;;7.57;5.70;;;;;;;6.28;78.18;100097.56;5107936;28;20062;-68
2021/12/14 10:01:46;;;;;;;7.95;5.82;;;;;;;6.32;78.14;100088.66;5107567;28;20047;-68
2021/12/14 10:04:21;;;;;;;8.05;5.95;;;;;;;5.34;78.09;99935.09;5107588;28;20051;-67
2021/12/14 10:06:54;;;;;;;9.50;6.57;;;;;;;6.38;78.01;100092.91;5107668;28;20047;-67
2021/12/14 10:09:31;;;;;;;9.45;6.35;;;;;;;6.38;78.08;100085.88;5107729;28;20288;-68
2021/12/14 10:12:17;;;;;;;7.70;5.80;;;;;;;6.42;78.02;100084.88;5107751;28;20040;-67
2021/12/14 10:14:51;;;;;;;6.47;5.28;;;;;;;6.48;77.95;100093.53;5107151;28;20320;-68
2021/12/14 10:17:26;;;;;;;9.20;5.00;;;;;;;6.50;77.89;100087.31;5106586;28;20040;-68
2021/12/14 10:19:58;;;;;;;6.80;5.15;;;;;;;4.82;77.73;99809.38;5107500;28;20055;-68
2021/12/14 10:22:31;;;;;;;7.72;5.75;;;;;;;6.58;77.79;100082.72;5107472;28;20043;-68
2021/12/14 10:25:09;;;;;;;10.02;5.75;;;;;;;6.63;77.68;100077.31;5107445;28;20059;-68
2021/12/14 10:27:43;;;;;;;7.47;5.40;;;;;;;6.68;77.39;100072.78;5107235;28;20047;-67
2021/12/14 10:30:19;;;;;;;8.15;5.35;;;;;;;6.72;77.30;100071.78;5107204;28;20040;-67
2021/12/14 10:32:52;;;;;;;6.57;5.00;;;;;;;6.71;77.18;100075.31;5107247;28;20035;-68
2021/12/14 10:35:29;;;;;;;6.93;5.00;;;;;;;6.75;77.26;100080.47;5107173;28;20048;-68
2021/12/14 10:38:14;;;;;;;7.15;4.93;;;;;;;6.57;77.14;100038.84;5107112;28;20047;-67
2021/12/14 10:43:42;;;;;;;8.93;5.95;;;;;;;6.78;76.93;100068.13;5106745;28;20040;-68
2021/12/14 10:46:14;;;;;;;7.72;6.10;;;;;;;6.78;77.19;100063.72;5106997;28;20326;-68
2021/12/14 10:48:49;;;;;;;6.72;4.82;;;;;;;6.39;76.95;99987.56;5106935;28;20295;-68
2021/12/14 10:51:25;;;;;;;6.90;4.78;;;;;;;6.87;76.71;100067.88;5106540;28;20131;-68
2021/12/14 10:54:01;;;;;;;5.90;4.00;;;;;;;6.89;76.55;100063.44;5106648;28;20047;-68
2021/12/14 10:56:46;;;;;;;6.72;4.50;;;;;;;6.86;76.27;100060.88;5106522;28;20066;-68
2021/12/14 10:59:23;;;;;;;5.93;4.80;;;;;;;6.86;76.61;100061.75;5106618;28;20044;-68
2021/12/14 11:01:55;;;;;;;5.55;4.07;;;;;;;6.91;76.42;100062.47;5106163;28;20204;-68
2021/12/14 11:04:37;;;;;;;5.68;4.35;;;;;;;6.93;76.23;100059.81;5106560;28;20040;-68
2021/12/14 11:07:14;;;;;;;7.15;4.78;;;;;;;6.95;76.26;100089.63;5106588;28;20067;-68
2021/12/14 11:09:52;;;;;;;8.05;5.05;;;;;;;6.96;76.42;100051.81;5106437;28;20300;-68
2021/12/14 11:12:28;;;;;;;7.60;5.90;;;;;;;6.99;76.28;100057.00;5106417;28;20048;-68
2021/12/14 11:15:06;;;;;;;6.53;5.25;;;;;;;6.96;76.05;100044.75;5106363;28;20079;-69
2021/12/14 11:20:33;;;;;;;8.25;5.57;;;;;;;6.98;76.53;100050.84;5106168;28;20319;-66
2021/12/14 11:23:09;;;;;;;7.78;5.80;;;;;;;6.98;76.68;100045.59;5105951;28;20300;-67
2021/12/14 11:25:52;;;;;;;7.75;5.85;;;;;;;7.00;76.57;100040.25;5106077;28;20047;-67
2021/12/14 11:28:29;;;;;;;7.65;5.85;;;;;;;6.99;76.50;100039.41;5105697;28;20048;-67
2021/12/14 11:31:05;;;;;;;7.18;4.82;;;;;;;6.99;76.45;100042.03;5105728;28;20058;-67
2021/12/14 11:33:42;;;;;;;9.05;5.82;;;;;;;6.99;76.28;100041.19;5105777;28;20073;-67
2021/12/14 11:36:15;;;;;;;8.60;5.82;;;;;;;6.99;76.58;100041.19;5105630;28;20296;-67
2021/12/14 11:38:52;;;;;;;6.15;4.88;;;;;;;6.98;76.27;100034.19;5105763;28;20047;-67
2021/12/14 11:41:38;;;;;;;7.90;5.30;;;;;;;6.99;76.31;100030.63;5105758;28;20200;-67
2021/12/14 11:44:18;;;;;;;8.13;4.38;;;;;;;7.00;76.33;100022.69;5106008;28;20048;-68
2021/12/14 11:47:04;;;;;;;6.63;4.57;;;;;;;7.02;76.28;100030.53;5105816;28;20288;-68
2021/12/14 11:49:46;;;;;;;6.53;4.65;;;;;;;7.07;76.32;100029.50;5105870;28;20296;-68
2021/12/14 11:52:36;;;;;;;5.90;4.32;;;;;;;7.13;75.96;100024.94;5105992;28;20047;-67
2021/12/14 11:55:37;;;;;;;6.32;4.38;;;;;;;7.15;75.71;100026.63;5105707;28;20047;-67
2021/12/14 11:58:20;;;;;;;5.85;4.30;;;;;;;7.15;76.02;100021.34;5094559;28;20067;-67
2021/12/14 12:00:55;;;;;;;8.55;5.25;;;;;;;7.16;76.21;100014.31;5105319;28;20054;-67
2021/12/14 12:03:40;;;;;;;9.57;4.65;;;;;;;7.19;75.88;100015.06;5105524;28;20048;-67
2021/12/14 12:06:25;;;;;;;6.97;4.80;;;;;;;7.21;76.00;100013.25;5105686;28;20048;-67
2021/12/14 12:11:49;;;;;;;6.18;4.95;;;;;;;7.23;76.14;100008.81;5105361;28;20051;-68
2021/12/14 12:14:26;;;;;;;9.03;6.30;;;;;;;7.20;75.88;100011.53;5105268;28;20309;-68
2021/12/14 12:17:10;;;;;;;8.98;6.70;;;;;;;7.22;75.96;100012.34;5105227;28;20385;-67
2021/12/14 12:19:54;;;;;;;9.07;6.55;;;;;;;7.24;76.03;100007.88;5105385;28;20070;-67
2021/12/14 12:22:33;;;;;;;7.32;4.90;;;;;;;7.23;76.06;100008.81;5105025;28;20047;-68
2021/12/14 12:25:09;;;;;;;6.10;5.38;;;;;;;7.26;76.25;100010.47;5105208;28;20212;-67
2021/12/14 12:27:46;;;;;;;6.38;4.70;;;;;;;7.29;76.08;99999.84;5105511;28;20048;-67
2021/12/14 12:30:47;;;;;;;7.20;4.70;;;;;;;7.32;75.58;100008.50;5105302;28;20073;-68
2021/12/14 12:33:24;;;;;;;7.22;4.80;;;;;;;7.34;76.43;100003.22;5105323;28;20212;-68
2021/12/14 12:36:04;;;;;;;7.05;5.25;;;;;;;7.36;76.08;100007.53;5105079;28;20047;-67
2021/12/14 12:38:50;;;;;;;6.65;5.10;;;;;;;7.42;75.94;100000.34;5106132;28;20055;-68